Time;durP1;ratioP1;P1;durP2;ratioP2;P2;SDS_P1;SDS_P2;PMS_P1;PMS_P2;Temp;Humidity;BMP_temperature;BMP_pressure;BME280_temperature;BME280_humidity;BME280_pressure;Samples;Min_cycle;Max_cycle;Signal;HPM_P1;HPM_P2
2022/06/04 00:01:27;;;;;;;5.55;5.18;;;;;;;;;;5092680;28;20231;-58
2022/06/04 00:03:55;;;;;;;5.53;5.13;;;;;;;;;;5107633;28;20217;-58
2022/06/04 00:06:22;;;;;;;5.25;4.93;;;;;;;;;;5098572;28;20695;-58
2022/06/04 00:08:49;;;;;;;5.30;5.00;;;;;;;;;;5089164;28;20210;-58
2022/06/04 00:16:46;;;;;;;5.72;5.32;;;;;;;;;;5095997;28;20228;-58
2022/06/04 00:19:13;;;;;;;5.70;5.30;;;;;;;;;;5106208;28;20210;-58
2022/06/04 00:21:40;;;;;;;4.93;4.68;;;;;;;;;;5100369;28;20213;-58
2022/06/04 00:24:07;;;;;;;4.95;4.65;;;;;;;;;;5109313;28;20213;-60
2022/06/04 00:26:35;;;;;;;6.05;5.63;;;;;;;;;;5097655;28;20206;-58
2022/06/04 00:29:05;;;;;;;5.47;5.05;;;;;;;;;;5090964;28;20205;-58
2022/06/04 00:31:32;;;;;;;5.00;4.70;;;;;;;;;;5085523;28;20234;-59
2022/06/04 00:33:59;;;;;;;5.50;4.97;;;;;;;;;;5090382;28;20228;-58
2022/06/04 00:36:26;;;;;;;5.35;5.05;;;;;;;;;;5096362;28;20267;-58
2022/06/04 00:38:53;;;;;;;4.70;4.40;;;;;;;;;;5103066;28;20289;-57
2022/06/04 00:41:23;;;;;;;6.80;5.38;;;;;;;;;;5089374;28;20198;-58
2022/06/04 00:43:56;;;;;;;5.78;5.25;;;;;;;;;;5089761;28;20198;-58
2022/06/04 00:46:42;;;;;;;6.13;5.72;;;;;;;;;;5091362;28;20222;-58
2022/06/04 00:49:11;;;;;;;5.40;5.10;;;;;;;;;;5092853;28;20209;-57
2022/06/04 00:51:39;;;;;;;5.60;5.22;;;;;;;;;;5099684;28;20209;-57
2022/06/04 00:54:07;;;;;;;5.35;4.95;;;;;;;;;;5106762;28;20232;-57
2022/06/04 00:56:41;;;;;;;5.40;4.90;;;;;;;;;;5092621;28;20210;-58
2022/06/04 00:59:26;;;;;;;5.65;5.20;;;;;;;;;;5096784;28;20221;-58
2022/06/04 01:02:00;;;;;;;4.80;4.50;;;;;;;;;;5088351;28;20266;-58
2022/06/04 01:04:49;;;;;;;4.72;4.53;;;;;;;;;;5096606;28;20205;-58
2022/06/04 01:07:22;;;;;;;5.28;4.93;;;;;;;;;;5094653;28;20321;-58
2022/06/04 01:09:58;;;;;;;5.38;5.07;;;;;;;;;;5103646;28;20201;-58
2022/06/04 01:12:37;;;;;;;5.85;5.38;;;;;;;;;;5092012;28;20619;-58
2022/06/04 01:15:10;;;;;;;5.13;4.85;;;;;;;;;;5092617;28;20204;-58
2022/06/04 01:17:45;;;;;;;5.25;4.85;;;;;;;;;;5092319;28;20236;-58
2022/06/04 01:20:19;;;;;;;5.63;5.13;;;;;;;;;;5092203;28;20205;-58
2022/06/04 01:22:58;;;;;;;5.20;4.90;;;;;;;;;;5103110;28;20220;-58
2022/06/04 01:25:31;;;;;;;5.20;4.80;;;;;;;;;;5093073;28;20221;-58
2022/06/04 01:28:01;;;;;;;5.43;4.97;;;;;;;;;;5093067;28;20221;-58
2022/06/04 01:30:31;;;;;;;5.60;5.15;;;;;;;;;;5094427;28;20203;-58
2022/06/04 01:33:00;;;;;;;5.28;4.78;;;;;;;;;;5105438;28;20707;-58
2022/06/04 01:35:30;;;;;;;6.18;5.57;;;;;;;;;;5105085;28;20277;-58
2022/06/04 01:37:59;;;;;;;5.40;5.05;;;;;;;;;;5099401;28;20209;-58
2022/06/04 01:43:18;;;;;;;5.13;4.82;;;;;;;;;;5095201;28;20344;-58
2022/06/04 01:45:46;;;;;;;5.15;4.88;;;;;;;;;;5112630;28;20209;-58
2022/06/04 01:48:14;;;;;;;5.18;4.90;;;;;;;;;;5110765;28;20232;-58
2022/06/04 01:50:43;;;;;;;5.50;5.10;;;;;;;;;;5091764;28;20210;-59
2022/06/04 01:53:11;;;;;;;5.55;5.15;;;;;;;;;;5098604;28;20218;-59
2022/06/04 01:55:42;;;;;;;5.38;4.97;;;;;;;;;;5092297;28;20664;-58
2022/06/04 01:58:11;;;;;;;5.72;5.22;;;;;;;;;;5091464;28;20243;-58
2022/06/04 02:00:43;;;;;;;6.10;5.53;;;;;;;;;;5097797;28;20212;-58
2022/06/04 02:03:12;;;;;;;5.93;5.20;;;;;;;;;;5090540;28;20190;-58
2022/06/04 02:05:40;;;;;;;5.28;4.97;;;;;;;;;;5088497;28;20672;-59
2022/06/04 02:08:09;;;;;;;6.13;5.63;;;;;;;;;;5095221;28;20198;-59
2022/06/04 02:10:39;;;;;;;5.93;5.53;;;;;;;;;;5108525;28;20682;-58
2022/06/04 02:13:08;;;;;;;6.18;5.68;;;;;;;;;;5107614;28;20207;-59
2022/06/04 02:15:38;;;;;;;5.63;5.32;;;;;;;;;;5079644;28;20234;-59
2022/06/04 02:18:08;;;;;;;5.63;5.25;;;;;;;;;;5091992;28;20584;-59
2022/06/04 02:20:35;;;;;;;6.13;5.72;;;;;;;;;;5107762;28;20423;-59
2022/06/04 02:23:03;;;;;;;6.25;5.75;;;;;;;;;;5104667;28;20214;-59
2022/06/04 02:25:30;;;;;;;5.80;5.40;;;;;;;;;;5109611;28;20288;-58
2022/06/04 02:27:58;;;;;;;5.32;4.97;;;;;;;;;;5106108;28;20501;-59
2022/06/04 02:30:26;;;;;;;5.43;5.07;;;;;;;;;;5099841;28;20206;-59
2022/06/04 02:32:58;;;;;;;5.95;5.55;;;;;;;;;;5111881;28;20239;-59
2022/06/04 02:35:29;;;;;;;5.93;5.53;;;;;;;;;;5106027;28;20201;-59
2022/06/04 02:38:00;;;;;;;5.10;4.70;;;;;;;;;;5103510;28;20209;-59
2022/06/04 02:40:28;;;;;;;6.00;5.50;;;;;;;;;;5101130;28;20319;-59
2022/06/04 02:42:58;;;;;;;5.60;5.10;;;;;;;;;;5093424;28;20656;-58
2022/06/04 02:45:29;;;;;;;5.53;5.10;;;;;;;;;;5096956;28;20567;-59
2022/06/04 02:47:57;;;;;;;5.00;4.70;;;;;;;;;;5110347;28;20248;-59
2022/06/04 02:50:27;;;;;;;5.93;5.43;;;;;;;;;;5108696;28;20698;-59
2022/06/04 02:52:56;;;;;;;5.65;5.15;;;;;;;;;;5095814;28;20193;-59
2022/06/04 02:55:25;;;;;;;5.82;5.22;;;;;;;;;;5109375;28;20695;-59
2022/06/04 02:57:54;;;;;;;4.88;4.68;;;;;;;;;;5092153;28;20301;-59
2022/06/04 03:00:23;;;;;;;6.25;5.13;;;;;;;;;;5106066;28;20209;-59
2022/06/04 03:02:51;;;;;;;5.15;4.75;;;;;;;;;;5092338;28;20209;-59
2022/06/04 03:05:24;;;;;;;5.53;5.03;;;;;;;;;;5093097;28;20285;-59
2022/06/04 03:07:54;;;;;;;5.60;5.20;;;;;;;;;;5093673;28;20198;-58
2022/06/04 03:10:24;;;;;;;5.35;4.95;;;;;;;;;;5091042;28;20220;-59
2022/06/04 03:12:51;;;;;;;5.65;5.20;;;;;;;;;;5092076;28;20214;-58
2022/06/04 03:15:18;;;;;;;6.20;5.60;;;;;;;;;;5101479;28;20326;-58
2022/06/04 03:17:46;;;;;;;5.93;5.40;;;;;;;;;;5101499;28;20229;-58
2022/06/04 03:20:14;;;;;;;4.97;4.57;;;;;;;;;;5090125;28;20218;-59
2022/06/04 03:22:41;;;;;;;5.93;5.35;;;;;;;;;;5091924;28;20232;-59
2022/06/04 03:25:08;;;;;;;4.47;4.18;;;;;;;;;;5108211;28;20205;-58
2022/06/04 03:27:37;;;;;;;5.68;5.18;;;;;;;;;;5105476;28;20202;-58
2022/06/04 03:30:04;;;;;;;4.45;4.25;;;;;;;;;;5109533;28;20213;-58
2022/06/04 03:32:31;;;;;;;5.32;4.93;;;;;;;;;;5104885;28;20277;-59
2022/06/04 03:34:59;;;;;;;4.90;4.50;;;;;;;;;;5109446;28;20236;-58
2022/06/04 03:37:26;;;;;;;4.45;4.20;;;;;;;;;;5106638;28;20255;-59
2022/06/04 03:39:53;;;;;;;4.80;4.50;;;;;;;;;;5091995;28;20205;-58
2022/06/04 03:42:20;;;;;;;4.65;4.35;;;;;;;;;;5097278;28;20206;-59
2022/06/04 03:44:48;;;;;;;4.32;4.03;;;;;;;;;;5091744;28;20657;-59
2022/06/04 03:47:16;;;;;;;4.63;4.38;;;;;;;;;;5095768;28;20237;-59
2022/06/04 03:49:43;;;;;;;7.00;4.20;;;;;;;;;;5089365;28;20682;-59
2022/06/04 03:52:11;;;;;;;4.40;4.20;;;;;;;;;;5099874;28;20218;-59
2022/06/04 03:54:53;;;;;;;4.88;4.47;;;;;;;;;;5089192;28;20587;-59
2022/06/04 03:57:39;;;;;;;5.20;4.80;;;;;;;;;;5095545;28;20598;-59
2022/06/04 04:00:09;;;;;;;5.05;4.68;;;;;;;;;;5089566;28;20206;-59
2022/06/04 04:02:37;;;;;;;6.93;4.50;;;;;;;;;;5100716;28;20233;-59
2022/06/04 04:05:04;;;;;;;4.68;4.47;;;;;;;;;;5104854;28;20960;-59
2022/06/04 04:07:31;;;;;;;5.00;4.70;;;;;;;;;;5104790;28;20282;-58
2022/06/04 04:09:58;;;;;;;4.28;4.07;;;;;;;;;;5100204;28;20201;-59
2022/06/04 04:12:25;;;;;;;4.20;4.00;;;;;;;;;;5106323;28;20210;-59
2022/06/04 04:14:52;;;;;;;3.70;3.60;;;;;;;;;;5089266;28;20226;-59
2022/06/04 04:17:22;;;;;;;3.60;3.40;;;;;;;;;;5102963;28;20209;-59
2022/06/04 04:19:49;;;;;;;4.07;3.90;;;;;;;;;;5106235;28;20211;-59
2022/06/04 04:22:16;;;;;;;4.18;3.97;;;;;;;;;;5108697;28;20212;-59
2022/06/04 04:24:43;;;;;;;4.75;4.35;;;;;;;;;;5091943;28;20198;-58
2022/06/04 04:27:11;;;;;;;4.03;3.72;;;;;;;;;;5100192;28;20205;-59
2022/06/04 04:29:38;;;;;;;4.78;4.47;;;;;;;;;;5087923;28;20232;-59
2022/06/04 04:32:06;;;;;;;4.88;4.53;;;;;;;;;;5090052;28;20194;-59
2022/06/04 04:34:34;;;;;;;4.25;3.97;;;;;;;;;;5101733;28;20225;-58
2022/06/04 04:37:01;;;;;;;4.57;4.28;;;;;;;;;;5108030;28;20225;-58
2022/06/04 04:39:28;;;;;;;4.65;4.35;;;;;;;;;;5089143;28;20209;-59
2022/06/04 04:41:55;;;;;;;4.75;4.47;;;;;;;;;;5090842;28;20661;-59
2022/06/04 04:44:23;;;;;;;4.88;4.60;;;;;;;;;;5103040;28;20205;-59
2022/06/04 04:46:50;;;;;;;4.50;4.28;;;;;;;;;;5108481;28;20267;-59
2022/06/04 04:49:19;;;;;;;4.90;4.60;;;;;;;;;;5092267;28;20212;-59
2022/06/04 04:51:47;;;;;;;4.57;4.30;;;;;;;;;;5097168;28;20854;-58
2022/06/04 04:54:14;;;;;;;4.20;4.00;;;;;;;;;;5103586;28;20644;-59
2022/06/04 04:56:41;;;;;;;3.65;3.53;;;;;;;;;;5090681;28;20197;-59
2022/06/04 04:59:09;;;;;;;4.00;3.78;;;;;;;;;;5092509;28;20198;-59
2022/06/04 05:01:36;;;;;;;4.03;3.83;;;;;;;;;;5090768;28;20294;-59
2022/06/04 05:04:03;;;;;;;3.78;3.58;;;;;;;;;;5100008;28;20205;-59
2022/06/04 05:06:30;;;;;;;4.45;4.00;;;;;;;;;;5094132;28;20663;-58
2022/06/04 05:08:59;;;;;;;3.65;3.45;;;;;;;;;;5102516;28;20280;-59
2022/06/04 05:11:28;;;;;;;4.35;4.10;;;;;;;;;;5101843;28;20201;-59
2022/06/04 05:13:55;;;;;;;3.78;3.58;;;;;;;;;;5107241;28;20290;-58
2022/06/04 05:16:23;;;;;;;4.47;4.18;;;;;;;;;;5091802;28;20289;-59
2022/06/04 05:18:50;;;;;;;4.13;3.83;;;;;;;;;;5088658;28;20210;-59
2022/06/04 05:21:19;;;;;;;4.28;3.85;;;;;;;;;;5088179;28;20665;-59
2022/06/04 05:23:47;;;;;;;4.10;3.90;;;;;;;;;;5101855;28;20206;-59
2022/06/04 05:26:15;;;;;;;3.80;3.67;;;;;;;;;;5097673;28;20672;-59
2022/06/04 05:28:42;;;;;;;3.65;3.55;;;;;;;;;;5098042;28;20212;-59
2022/06/04 05:31:10;;;;;;;3.92;3.75;;;;;;;;;;5089351;28;20254;-58
2022/06/04 05:33:37;;;;;;;4.30;4.00;;;;;;;;;;5091281;28;20201;-59
2022/06/04 05:36:04;;;;;;;4.30;3.85;;;;;;;;;;5099708;28;20222;-58
2022/06/04 05:38:34;;;;;;;4.03;3.78;;;;;;;;;;5099432;28;20234;-59
2022/06/04 05:41:02;;;;;;;3.75;3.55;;;;;;;;;;5104049;28;20210;-63
2022/06/04 05:43:30;;;;;;;3.95;3.75;;;;;;;;;;5087613;28;20613;-62
2022/06/04 05:45:58;;;;;;;3.72;3.63;;;;;;;;;;5100829;28;20205;-63
2022/06/04 05:48:25;;;;;;;3.72;3.55;;;;;;;;;;5087657;28;20668;-62
2022/06/04 05:50:53;;;;;;;4.05;3.78;;;;;;;;;;5101762;28;20205;-63
2022/06/04 05:53:20;;;;;;;3.28;3.17;;;;;;;;;;5098420;28;20213;-63
2022/06/04 05:55:48;;;;;;;3.97;3.63;;;;;;;;;;5095271;28;20318;-62
2022/06/04 05:58:15;;;;;;;4.10;3.90;;;;;;;;;;5092680;28;20304;-63
2022/06/04 06:00:43;;;;;;;3.83;3.70;;;;;;;;;;5091650;28;20214;-62
2022/06/04 06:03:10;;;;;;;3.50;3.35;;;;;;;;;;5091604;28;20217;-63
2022/06/04 06:05:42;;;;;;;3.22;3.13;;;;;;;;;;5098586;28;20197;-63
2022/06/04 06:08:09;;;;;;;3.72;3.38;;;;;;;;;;5071426;28;20214;-63
2022/06/04 06:10:39;;;;;;;3.47;3.20;;;;;;;;;;5078380;28;20205;-63
2022/06/04 06:13:06;;;;;;;3.50;3.40;;;;;;;;;;5091352;28;20210;-63
2022/06/04 06:15:34;;;;;;;4.10;3.70;;;;;;;;;;5101344;28;20222;-63
2022/06/04 06:18:02;;;;;;;3.53;3.35;;;;;;;;;;5111783;28;20484;-63
2022/06/04 06:20:29;;;;;;;3.70;3.50;;;;;;;;;;5109661;28;20201;-63
2022/06/04 06:22:56;;;;;;;3.63;3.45;;;;;;;;;;5097469;28;20593;-64
2022/06/04 06:25:24;;;;;;;3.72;3.53;;;;;;;;;;5094915;28;20208;-63
2022/06/04 06:27:51;;;;;;;3.70;3.50;;;;;;;;;;5105874;28;20710;-63
2022/06/04 06:30:18;;;;;;;3.28;3.17;;;;;;;;;;5091116;28;20199;-64
2022/06/04 06:32:46;;;;;;;3.45;3.15;;;;;;;;;;5091130;28;20234;-63
2022/06/04 06:35:14;;;;;;;3.65;3.50;;;;;;;;;;5095456;28;20734;-64
2022/06/04 06:37:41;;;;;;;4.90;3.35;;;;;;;;;;5090950;28;20210;-63
2022/06/04 06:40:09;;;;;;;3.40;3.30;;;;;;;;;;5090865;28;20683;-64
2022/06/04 06:42:36;;;;;;;3.67;3.53;;;;;;;;;;5090840;28;20214;-64
2022/06/04 06:45:04;;;;;;;3.83;3.63;;;;;;;;;;5097209;28;20529;-64
2022/06/04 06:47:32;;;;;;;3.08;2.97;;;;;;;;;;5089362;28;20230;-64
2022/06/04 06:50:00;;;;;;;3.22;3.13;;;;;;;;;;5090670;28;20242;-64
2022/06/04 06:52:29;;;;;;;3.30;3.20;;;;;;;;;;5070240;28;20238;-63
2022/06/04 06:54:56;;;;;;;3.33;3.22;;;;;;;;;;5076927;28;20687;-64
2022/06/04 06:57:23;;;;;;;3.22;3.13;;;;;;;;;;5095378;28;20198;-64
2022/06/04 06:59:51;;;;;;;3.10;3.00;;;;;;;;;;5089967;28;20214;-63
2022/06/04 07:02:18;;;;;;;3.33;3.15;;;;;;;;;;5086571;28;20203;-62
2022/06/04 07:04:45;;;;;;;2.70;2.60;;;;;;;;;;5092668;28;20284;-63
2022/06/04 07:07:12;;;;;;;2.90;2.80;;;;;;;;;;5099684;28;20206;-61
2022/06/04 07:09:43;;;;;;;3.22;3.03;;;;;;;;;;5092294;28;20210;-61
2022/06/04 07:12:12;;;;;;;2.90;2.70;;;;;;;;;;5110359;28;20350;-59
2022/06/04 07:14:40;;;;;;;2.67;2.60;;;;;;;;;;5107896;28;20289;-59
2022/06/04 07:17:07;;;;;;;2.60;2.60;;;;;;;;;;5090845;28;20297;-58
2022/06/04 07:19:35;;;;;;;3.22;2.70;;;;;;;;;;5098887;28;20251;-58
2022/06/04 07:22:02;;;;;;;2.92;2.72;;;;;;;;;;5103005;28;20207;-59
2022/06/04 07:24:29;;;;;;;2.67;2.67;;;;;;;;;;5089942;28;20209;-59
2022/06/04 07:26:58;;;;;;;2.63;2.53;;;;;;;;;;5096195;28;20198;-58
2022/06/04 07:29:26;;;;;;;3.05;2.95;;;;;;;;;;5092971;28;20289;-58
2022/06/04 07:31:53;;;;;;;2.85;2.75;;;;;;;;;;5094255;28;20198;-59
2022/06/04 07:34:21;;;;;;;2.53;2.53;;;;;;;;;;5099922;28;20257;-59
2022/06/04 07:36:48;;;;;;;2.95;2.72;;;;;;;;;;5099600;28;20229;-59
2022/06/04 07:39:17;;;;;;;3.22;3.03;;;;;;;;;;5100192;28;20338;-58
2022/06/04 07:41:45;;;;;;;2.90;2.70;;;;;;;;;;5099883;28;20572;-59
2022/06/04 07:44:14;;;;;;;2.83;2.72;;;;;;;;;;5089735;28;20206;-59
2022/06/04 07:46:42;;;;;;;2.72;2.63;;;;;;;;;;5096362;28;20202;-59
2022/06/04 07:49:10;;;;;;;2.92;2.42;;;;;;;;;;5106042;28;20194;-62
2022/06/04 07:51:41;;;;;;;2.80;2.70;;;;;;;;;;5089071;28;20217;-62
2022/06/04 07:54:09;;;;;;;2.33;2.33;;;;;;;;;;5087652;28;20214;-62
2022/06/04 07:56:36;;;;;;;2.85;2.75;;;;;;;;;;5107034;28;20320;-62
2022/06/04 07:59:04;;;;;;;2.92;2.83;;;;;;;;;;5099603;28;20229;-63
2022/06/04 08:01:32;;;;;;;2.85;2.72;;;;;;;;;;5096303;28;20202;-62
2022/06/04 08:03:59;;;;;;;2.80;2.70;;;;;;;;;;5106819;28;20216;-62
2022/06/04 08:06:26;;;;;;;2.42;2.38;;;;;;;;;;5099979;28;20259;-62
2022/06/04 08:08:55;;;;;;;2.85;2.75;;;;;;;;;;5097478;28;20205;-62
2022/06/04 08:11:31;;;;;;;2.78;2.67;;;;;;;;;;5109040;28;20209;-62
2022/06/04 08:13:59;;;;;;;2.40;2.35;;;;;;;;;;5095073;28;20213;-62
2022/06/04 08:16:26;;;;;;;2.53;2.35;;;;;;;;;;5101650;28;20225;-61
2022/06/04 08:18:55;;;;;;;2.60;2.50;;;;;;;;;;5090038;28;20206;-62
2022/06/04 08:21:22;;;;;;;2.13;2.13;;;;;;;;;;5091399;28;20351;-62
2022/06/04 08:23:49;;;;;;;3.42;2.60;;;;;;;;;;5109271;28;20296;-62
2022/06/04 08:26:17;;;;;;;3.30;2.80;;;;;;;;;;5095943;28;20205;-59
2022/06/04 08:28:44;;;;;;;2.50;2.50;;;;;;;;;;5096206;28;20218;-58
2022/06/04 08:31:12;;;;;;;2.38;2.38;;;;;;;;;;5103021;28;20205;-59
2022/06/04 08:34:05;;;;;;;2.83;2.72;;;;;;;;;;5108765;28;20262;-59
2022/06/04 08:36:33;;;;;;;2.78;2.70;;;;;;;;;;5098491;28;20257;-59
2022/06/04 08:39:01;;;;;;;2.67;2.58;;;;;;;;;;5105112;28;20202;-59
2022/06/04 08:41:35;;;;;;;2.58;2.58;;;;;;;;;;5102304;28;20606;-59
2022/06/04 08:44:06;;;;;;;2.70;2.67;;;;;;;;;;5073017;28;20202;-59
2022/06/04 08:46:35;;;;;;;2.17;2.17;;;;;;;;;;5082196;28;20657;-59
2022/06/04 08:49:04;;;;;;;2.38;2.38;;;;;;;;;;5083493;28;20215;-59
2022/06/04 08:51:43;;;;;;;2.40;2.40;;;;;;;;;;5086913;28;20205;-59
2022/06/04 08:59:46;;;;;;;2.35;2.35;;;;;;;;;;5083686;28;20292;-59
2022/06/04 09:02:18;;;;;;;2.55;2.55;;;;;;;;;;5108526;28;20324;-59
2022/06/04 09:04:48;;;;;;;3.05;2.50;;;;;;;;;;5097371;28;20213;-59
2022/06/04 09:07:18;;;;;;;2.92;2.78;;;;;;;;;;5088012;28;20220;-59
2022/06/04 09:09:46;;;;;;;2.58;2.50;;;;;;;;;;5089031;28;20203;-59
2022/06/04 09:12:21;;;;;;;2.50;2.50;;;;;;;;;;5087847;28;20676;-59
2022/06/04 09:14:51;;;;;;;2.45;2.45;;;;;;;;;;5088139;28;20673;-59
2022/06/04 09:17:21;;;;;;;3.15;2.30;;;;;;;;;;5098774;28;20229;-59
2022/06/04 09:19:50;;;;;;;3.20;3.00;;;;;;;;;;5106547;28;21316;-59
2022/06/04 09:22:21;;;;;;;2.85;2.75;;;;;;;;;;5106388;28;20209;-59
2022/06/04 09:24:48;;;;;;;2.85;2.75;;;;;;;;;;5105141;28;20209;-59
2022/06/04 09:27:21;;;;;;;2.45;2.35;;;;;;;;;;5091750;28;20749;-59
2022/06/04 09:29:53;;;;;;;2.85;2.38;;;;;;;;;;5099375;28;20209;-59
2022/06/04 09:32:26;;;;;;;3.17;3.08;;;;;;;;;;5071906;28;20902;-58
2022/06/04 09:34:54;;;;;;;3.30;3.10;;;;;;;;;;5108089;28;20267;-56
2022/06/04 09:37:22;;;;;;;3.20;3.10;;;;;;;;;;5097490;28;20250;-59
2022/06/04 09:40:02;;;;;;;3.10;3.00;;;;;;;;;;5092276;28;20206;-59
2022/06/04 09:42:30;;;;;;;3.00;2.90;;;;;;;;;;5092068;28;20645;-58
2022/06/04 09:45:00;;;;;;;2.95;2.95;;;;;;;;;;5091082;28;20676;-58
2022/06/04 09:47:29;;;;;;;2.58;2.47;;;;;;;;;;5073087;28;20235;-59
2022/06/04 09:49:58;;;;;;;2.58;2.58;;;;;;;;;;5098470;28;20217;-58
2022/06/04 09:52:36;;;;;;;2.65;2.60;;;;;;;;;;5070779;28;20310;-59
2022/06/04 09:55:10;;;;;;;2.80;2.70;;;;;;;;;;5084894;28;20202;-59
2022/06/04 09:57:38;;;;;;;2.20;2.20;;;;;;;;;;5070947;28;20233;-59
2022/06/04 10:00:06;;;;;;;2.28;2.28;;;;;;;;;;5090842;28;20205;-59
2022/06/04 10:02:33;;;;;;;2.75;2.65;;;;;;;;;;5101482;28;20199;-59
2022/06/04 10:05:03;;;;;;;2.75;2.65;;;;;;;;;;5088560;28;20217;-58
2022/06/04 10:07:33;;;;;;;2.55;2.53;;;;;;;;;;5067510;28;20261;-59
2022/06/04 10:10:01;;;;;;;3.05;2.97;;;;;;;;;;5086298;28;20921;-59
2022/06/04 10:15:22;;;;;;;3.10;3.00;;;;;;;;;;5087660;28;20599;-59
2022/06/04 10:17:59;;;;;;;3.03;2.95;;;;;;;;;;5067154;28;20199;-59
2022/06/04 10:20:26;;;;;;;3.63;3.53;;;;;;;;;;5087737;28;20218;-59
2022/06/04 10:22:55;;;;;;;3.70;3.50;;;;;;;;;;5082569;28;20217;-59
2022/06/04 10:25:25;;;;;;;3.20;3.10;;;;;;;;;;5087236;28;20317;-59
2022/06/04 10:28:00;;;;;;;3.10;3.00;;;;;;;;;;5082137;28;20591;-59
2022/06/04 10:30:29;;;;;;;3.88;3.67;;;;;;;;;;5085893;28;20740;-59
2022/06/04 10:33:02;;;;;;;3.60;3.40;;;;;;;;;;5106073;28;20262;-60
2022/06/04 10:35:47;;;;;;;4.03;3.35;;;;;;;;;;5084415;28;20268;-59
2022/06/04 10:38:24;;;;;;;2.97;2.97;;;;;;;;;;5065626;28;20214;-59
2022/06/04 10:40:58;;;;;;;3.00;2.90;;;;;;;;;;5086628;28;20213;-61
2022/06/04 10:43:32;;;;;;;2.85;2.85;;;;;;;;;;5087715;28;20203;-59
2022/06/04 10:46:03;;;;;;;3.10;3.00;;;;;;;;;;5070000;28;20206;-60
2022/06/04 10:48:38;;;;;;;4.03;3.28;;;;;;;;;;5097361;28;20269;-59
2022/06/04 10:51:28;;;;;;;2.90;2.90;;;;;;;;;;5069885;28;20267;-59
2022/06/04 10:54:00;;;;;;;3.00;2.90;;;;;;;;;;5084584;28;20660;-57
2022/06/04 10:56:30;;;;;;;3.00;2.90;;;;;;;;;;5074676;28;20222;-61
2022/06/04 10:59:02;;;;;;;3.00;2.90;;;;;;;;;;5093643;28;20282;-58
2022/06/04 11:01:33;;;;;;;2.65;2.60;;;;;;;;;;5087879;28;20210;-57
2022/06/04 11:04:07;;;;;;;3.35;3.15;;;;;;;;;;5095519;28;20215;-57
2022/06/04 11:06:36;;;;;;;3.22;3.03;;;;;;;;;;5084945;28;21042;-58
2022/06/04 11:09:06;;;;;;;2.88;2.78;;;;;;;;;;5086709;28;20653;-58
2022/06/04 11:11:35;;;;;;;3.47;3.28;;;;;;;;;;5092770;28;20214;-58
2022/06/04 11:14:04;;;;;;;2.75;2.65;;;;;;;;;;5089161;28;20210;-58
2022/06/04 11:16:34;;;;;;;3.15;3.05;;;;;;;;;;5084726;28;20226;-57
2022/06/04 11:19:05;;;;;;;3.30;3.20;;;;;;;;;;5085034;28;20752;-59
2022/06/04 11:21:35;;;;;;;2.95;2.95;;;;;;;;;;5101805;28;20197;-60
2022/06/04 11:24:03;;;;;;;2.92;2.83;;;;;;;;;;5093745;28;20264;-60
2022/06/04 11:26:33;;;;;;;2.85;2.75;;;;;;;;;;5081277;28;20202;-59
2022/06/04 11:29:03;;;;;;;3.25;3.15;;;;;;;;;;5074818;28;20203;-59
2022/06/04 11:31:38;;;;;;;3.00;2.90;;;;;;;;;;5076344;28;20988;-62
2022/06/04 11:34:12;;;;;;;2.72;2.63;;;;;;;;;;5082320;28;20206;-57
2022/06/04 11:36:45;;;;;;;3.03;2.92;;;;;;;;;;5070875;28;20776;-57
2022/06/04 11:39:20;;;;;;;3.10;3.00;;;;;;;;;;5098062;28;20205;-57
2022/06/04 11:41:52;;;;;;;3.05;2.95;;;;;;;;;;5099273;28;20209;-57
2022/06/04 11:44:27;;;;;;;3.67;3.38;;;;;;;;;;5098119;28;20201;-58
2022/06/04 11:47:00;;;;;;;3.45;3.25;;;;;;;;;;5089964;28;20385;-58
2022/06/04 11:49:32;;;;;;;3.20;3.00;;;;;;;;;;5086321;28;20229;-58
2022/06/04 11:52:03;;;;;;;3.50;3.05;;;;;;;;;;5084003;28;20580;-59
2022/06/04 11:54:37;;;;;;;3.10;3.00;;;;;;;;;;5095226;28;20234;-59
2022/06/04 11:57:14;;;;;;;3.38;3.05;;;;;;;;;;5080580;28;20223;-58
2022/06/04 11:59:47;;;;;;;2.53;2.53;;;;;;;;;;5082291;28;20237;-60
2022/06/04 12:02:16;;;;;;;2.85;2.75;;;;;;;;;;5093868;28;20213;-59
2022/06/04 12:04:48;;;;;;;2.70;2.60;;;;;;;;;;5104521;28;20221;-60
2022/06/04 12:07:18;;;;;;;2.85;2.75;;;;;;;;;;5095186;28;20197;-60
2022/06/04 12:09:47;;;;;;;2.92;2.83;;;;;;;;;;5099158;28;20210;-57
2022/06/04 12:12:18;;;;;;;3.17;3.08;;;;;;;;;;5094446;28;20230;-57
2022/06/04 12:14:49;;;;;;;2.90;2.80;;;;;;;;;;5085510;28;20206;-59
2022/06/04 12:17:18;;;;;;;2.97;2.88;;;;;;;;;;5084909;28;20234;-58
2022/06/04 12:25:35;;;;;;;2.92;2.83;;;;;;;;;;5085017;28;20205;-59
2022/06/04 12:28:04;;;;;;;2.72;2.60;;;;;;;;;;5084447;28;20230;-60
2022/06/04 12:30:40;;;;;;;2.55;2.55;;;;;;;;;;5100709;28;20241;-60
2022/06/04 12:33:11;;;;;;;2.83;2.80;;;;;;;;;;5086290;28;20205;-60
2022/06/04 12:35:38;;;;;;;2.60;2.50;;;;;;;;;;5087742;28;20715;-60
2022/06/04 12:38:13;;;;;;;2.95;2.85;;;;;;;;;;5105143;28;20233;-60
2022/06/04 12:40:42;;;;;;;3.17;3.00;;;;;;;;;;5087664;28;20230;-60
2022/06/04 12:43:25;;;;;;;2.60;2.60;;;;;;;;;;5084940;28;20254;-60
2022/06/04 12:45:53;;;;;;;3.15;3.05;;;;;;;;;;5085113;28;20221;-59
2022/06/04 12:48:31;;;;;;;2.92;2.70;;;;;;;;;;5085108;28;20735;-61
2022/06/04 12:51:01;;;;;;;2.47;2.35;;;;;;;;;;5098702;28;20198;-58
2022/06/04 12:53:30;;;;;;;2.50;2.50;;;;;;;;;;5098204;28;20206;-58
2022/06/04 12:55:58;;;;;;;2.40;2.33;;;;;;;;;;5090026;28;20203;-59
2022/06/04 12:58:30;;;;;;;1.90;1.80;;;;;;;;;;5092687;28;20229;-58
2022/06/04 13:00:59;;;;;;;1.92;1.80;;;;;;;;;;5084286;28;20209;-59
2022/06/04 13:03:31;;;;;;;1.90;1.90;;;;;;;;;;5084180;28;20742;-59
2022/06/04 13:06:01;;;;;;;2.20;2.15;;;;;;;;;;5099946;28;20617;-59
2022/06/04 13:08:32;;;;;;;2.72;2.50;;;;;;;;;;5089886;28;20206;-59
2022/06/04 13:11:03;;;;;;;2.20;2.20;;;;;;;;;;5081116;28;20224;-59
2022/06/04 13:13:37;;;;;;;2.38;2.38;;;;;;;;;;5082243;28;20210;-58
2022/06/04 13:16:05;;;;;;;2.70;2.60;;;;;;;;;;5083798;28;20764;-58
2022/06/04 13:18:34;;;;;;;2.55;2.45;;;;;;;;;;5083913;28;20222;-58
2022/06/04 13:21:02;;;;;;;2.35;2.35;;;;;;;;;;5084943;28;20585;-58
2022/06/04 13:23:33;;;;;;;2.40;2.30;;;;;;;;;;5083828;28;20313;-58
2022/06/04 13:26:09;;;;;;;2.45;1.90;;;;;;;;;;5092128;28;20223;-59
2022/06/04 13:28:38;;;;;;;2.40;2.30;;;;;;;;;;5093390;28;20217;-59
2022/06/04 13:31:06;;;;;;;2.47;2.38;;;;;;;;;;5096141;28;20203;-59
2022/06/04 13:33:37;;;;;;;2.50;2.40;;;;;;;;;;5084044;28;20703;-59
2022/06/04 13:36:05;;;;;;;2.17;2.17;;;;;;;;;;5087342;28;20218;-58
2022/06/04 13:38:37;;;;;;;3.13;2.08;;;;;;;;;;5084219;28;20955;-59
2022/06/04 13:41:05;;;;;;;2.60;2.50;;;;;;;;;;5093214;28;20680;-59
2022/06/04 13:43:38;;;;;;;2.03;2.00;;;;;;;;;;5098075;28;20334;-60
2022/06/04 13:46:14;;;;;;;1.90;1.90;;;;;;;;;;5095895;28;20212;-59
2022/06/04 13:48:50;;;;;;;1.80;1.80;;;;;;;;;;5085959;28;20245;-60
2022/06/04 13:51:19;;;;;;;2.10;2.10;;;;;;;;;;5097574;28;20695;-60
2022/06/04 13:53:53;;;;;;;2.03;2.03;;;;;;;;;;5091311;28;20202;-61
2022/06/04 13:56:20;;;;;;;2.10;2.10;;;;;;;;;;5090054;28;20758;-56
2022/06/04 13:58:47;;;;;;;2.10;2.10;;;;;;;;;;5084673;28;20356;-62
2022/06/04 14:01:22;;;;;;;2.90;2.15;;;;;;;;;;5095686;28;20230;-59
2022/06/04 14:03:50;;;;;;;2.20;2.20;;;;;;;;;;5090606;28;20221;-60
2022/06/04 14:06:20;;;;;;;2.22;2.22;;;;;;;;;;5094366;28;20225;-61
2022/06/04 14:08:47;;;;;;;2.20;2.15;;;;;;;;;;5081050;28;20202;-60
2022/06/04 14:11:22;;;;;;;5.35;2.10;;;;;;;;;;5079287;28;20207;-61
2022/06/04 14:13:56;;;;;;;1.83;1.83;;;;;;;;;;5066481;28;20268;-58
2022/06/04 14:16:32;;;;;;;1.58;1.58;;;;;;;;;;5066094;28;20240;-58
2022/06/04 14:19:16;;;;;;;1.95;1.95;;;;;;;;;;5067270;28;20225;-58
2022/06/04 14:21:48;;;;;;;1.85;1.85;;;;;;;;;;5067328;28;20225;-58
2022/06/04 14:24:19;;;;;;;1.70;1.70;;;;;;;;;;5073853;28;20202;-58
2022/06/04 14:26:50;;;;;;;2.33;2.33;;;;;;;;;;5086132;28;20585;-59
2022/06/04 14:29:21;;;;;;;2.50;2.28;;;;;;;;;;5086420;28;20214;-57
2022/06/04 14:31:55;;;;;;;2.33;2.08;;;;;;;;;;5068552;28;20898;-59
2022/06/04 14:34:22;;;;;;;1.83;1.83;;;;;;;;;;5066217;28;20305;-59
2022/06/04 14:36:51;;;;;;;1.90;1.90;;;;;;;;;;5066297;28;20317;-58
2022/06/04 14:39:19;;;;;;;1.77;1.77;;;;;;;;;;5066259;28;20213;-59
2022/06/04 14:41:53;;;;;;;2.00;2.00;;;;;;;;;;5079780;28;20708;-59
2022/06/04 14:44:29;;;;;;;1.63;1.63;;;;;;;;;;5086261;28;20214;-59
2022/06/04 14:47:07;;;;;;;1.67;1.65;;;;;;;;;;5083479;28;20216;-59
2022/06/04 14:49:53;;;;;;;1.90;1.75;;;;;;;;;;5085885;28;20206;-59
2022/06/04 14:52:32;;;;;;;2.00;1.90;;;;;;;;;;5066708;28;20206;-58
2022/06/04 14:55:06;;;;;;;1.60;1.50;;;;;;;;;;5065521;28;20203;-58
2022/06/04 14:57:43;;;;;;;1.88;1.85;;;;;;;;;;5068345;28;20234;-58
2022/06/04 15:00:20;;;;;;;1.70;1.70;;;;;;;;;;5090637;28;20216;-59
2022/06/04 15:02:55;;;;;;;1.35;1.35;;;;;;;;;;5106029;28;20225;-58
2022/06/04 15:05:27;;;;;;;1.77;1.77;;;;;;;;;;5106167;28;20674;-59
2022/06/04 15:08:04;;;;;;;1.60;1.60;;;;;;;;;;5086704;28;20214;-59
2022/06/04 15:10:33;;;;;;;1.60;1.60;;;;;;;;;;5089826;28;20353;-59
2022/06/04 15:13:06;;;;;;;1.70;1.70;;;;;;;;;;5103352;28;20216;-59
2022/06/04 15:15:41;;;;;;;1.75;1.40;;;;;;;;;;5105311;28;20237;-59
2022/06/04 15:18:30;;;;;;;1.70;1.58;;;;;;;;;;5104614;28;20236;-59
2022/06/04 15:21:01;;;;;;;1.88;1.88;;;;;;;;;;5075827;28;20210;-59
2022/06/04 15:23:38;;;;;;;1.50;1.50;;;;;;;;;;5088030;28;20644;-59